Time;durP1;ratioP1;P1;durP2;ratioP2;P2;SDS_P1;SDS_P2;PMS_P1;PMS_P2;Temp;Humidity;BMP_temperature;BMP_pressure;BME280_temperature;BME280_humidity;BME280_pressure;Samples;Min_cycle;Max_cycle;Signal;HPM_P1;HPM_P2
2022/10/15 00:01:20;;;;;;;7.78;3.28;;;;;;;;;;5086016;28;20012;-58
2022/10/15 00:03:46;;;;;;;8.23;3.30;;;;;;;;;;5090446;28;20073;-58
2022/10/15 00:06:15;;;;;;;11.07;3.10;;;;;;;;;;5085314;28;20476;-58
2022/10/15 00:08:41;;;;;;;10.75;2.90;;;;;;;;;;5087861;28;20054;-58
2022/10/15 00:11:07;;;;;;;7.45;3.03;;;;;;;;;;5100665;28;20369;-58
2022/10/15 00:13:33;;;;;;;10.15;3.42;;;;;;;;;;5076713;28;20401;-58
2022/10/15 00:15:58;;;;;;;7.45;3.40;;;;;;;;;;5091260;28;20020;-58
2022/10/15 00:18:24;;;;;;;11.20;3.40;;;;;;;;;;5087646;28;20024;-58
2022/10/15 00:20:49;;;;;;;10.95;3.63;;;;;;;;;;5090844;28;20016;-57
2022/10/15 00:23:14;;;;;;;11.82;3.78;;;;;;;;;;5091499;28;20024;-58
2022/10/15 00:25:41;;;;;;;11.15;3.47;;;;;;;;;;5089815;28;20020;-58
2022/10/15 00:28:06;;;;;;;18.50;3.85;;;;;;;;;;5099937;28;20061;-58
2022/10/15 00:30:31;;;;;;;11.80;3.70;;;;;;;;;;5094566;28;20020;-58
2022/10/15 00:32:57;;;;;;;12.63;3.50;;;;;;;;;;5084754;28;20028;-58
2022/10/15 00:35:22;;;;;;;11.93;4.10;;;;;;;;;;5087460;28;20157;-58
2022/10/15 00:37:47;;;;;;;13.05;3.58;;;;;;;;;;5090680;28;20016;-58
2022/10/15 00:40:14;;;;;;;9.68;3.70;;;;;;;;;;5089690;28;20453;-58
2022/10/15 00:42:39;;;;;;;10.98;4.25;;;;;;;;;;5090352;28;20019;-58
2022/10/15 00:45:05;;;;;;;9.23;4.07;;;;;;;;;;5085287;28;20570;-58
2022/10/15 00:47:34;;;;;;;8.70;4.38;;;;;;;;;;5093750;28;20450;-58
2022/10/15 00:50:09;;;;;;;9.03;4.07;;;;;;;;;;5093238;28;20051;-58
2022/10/15 00:52:55;;;;;;;15.45;4.88;;;;;;;;;;5087768;28;20052;-59
2022/10/15 00:55:23;;;;;;;10.90;3.70;;;;;;;;;;5088688;28;20032;-59
2022/10/15 00:57:48;;;;;;;13.25;4.07;;;;;;;;;;5083338;28;20052;-58
2022/10/15 01:00:14;;;;;;;12.27;3.60;;;;;;;;;;5091894;28;20104;-58
2022/10/15 01:02:39;;;;;;;8.52;3.78;;;;;;;;;;5090636;28;20421;-59
2022/10/15 01:05:05;;;;;;;13.27;4.43;;;;;;;;;;5093600;28;20044;-57
2022/10/15 01:07:30;;;;;;;11.07;4.22;;;;;;;;;;5094505;28;20019;-57
2022/10/15 01:09:55;;;;;;;21.15;5.40;;;;;;;;;;5091930;28;20098;-57
2022/10/15 01:12:21;;;;;;;16.58;4.93;;;;;;;;;;5097661;28;20078;-57
2022/10/15 01:14:55;;;;;;;17.40;5.22;;;;;;;;;;5096089;28;20028;-57
2022/10/15 01:17:33;;;;;;;21.38;5.93;;;;;;;;;;5084458;28;20028;-57
2022/10/15 01:20:07;;;;;;;19.10;5.38;;;;;;;;;;5084850;28;20107;-57
2022/10/15 01:22:42;;;;;;;16.27;5.65;;;;;;;;;;5088708;28;20377;-57
2022/10/15 01:25:14;;;;;;;17.17;6.13;;;;;;;;;;5093965;28;20031;-57
2022/10/15 01:27:42;;;;;;;18.63;5.70;;;;;;;;;;5086588;28;20485;-57
2022/10/15 01:30:14;;;;;;;18.08;5.85;;;;;;;;;;5085319;28;20465;-57
2022/10/15 01:32:52;;;;;;;12.52;5.28;;;;;;;;;;5092086;28;20091;-57
2022/10/15 01:35:36;;;;;;;19.52;6.20;;;;;;;;;;5088817;28;20567;-57
2022/10/15 01:38:30;;;;;;;23.50;5.70;;;;;;;;;;5096208;28;20105;-57
2022/10/15 01:41:00;;;;;;;14.27;5.80;;;;;;;;;;5014249;28;20026;-57
2022/10/15 01:43:33;;;;;;;24.10;6.17;;;;;;;;;;5093022;28;20081;-57
2022/10/15 01:46:00;;;;;;;14.50;5.78;;;;;;;;;;5088974;28;20038;-57
2022/10/15 01:48:25;;;;;;;14.75;5.82;;;;;;;;;;5088111;28;20043;-57
2022/10/15 01:50:52;;;;;;;16.13;5.25;;;;;;;;;;5079287;28;20457;-57
2022/10/15 01:53:18;;;;;;;13.93;5.30;;;;;;;;;;5091222;28;20024;-57
2022/10/15 01:55:43;;;;;;;20.27;6.07;;;;;;;;;;5090841;28;20032;-57
2022/10/15 01:58:09;;;;;;;16.08;5.45;;;;;;;;;;5091841;28;20024;-58
2022/10/15 02:00:34;;;;;;;14.48;5.07;;;;;;;;;;5085242;28;20032;-57
2022/10/15 02:02:59;;;;;;;18.35;5.50;;;;;;;;;;5089672;28;20047;-57
2022/10/15 02:05:26;;;;;;;20.83;6.07;;;;;;;;;;5084231;28;20127;-58
2022/10/15 02:08:06;;;;;;;16.52;5.30;;;;;;;;;;5093955;28;20023;-57
2022/10/15 02:10:41;;;;;;;18.98;5.60;;;;;;;;;;5088228;28;20024;-57
2022/10/15 02:13:09;;;;;;;16.30;5.63;;;;;;;;;;5089603;28;20032;-57
2022/10/15 02:15:44;;;;;;;13.27;5.30;;;;;;;;;;5090333;28;20098;-57
2022/10/15 02:18:12;;;;;;;17.00;5.70;;;;;;;;;;5093291;28;20093;-57
2022/10/15 02:20:40;;;;;;;12.70;5.32;;;;;;;;;;5093108;28;20020;-57
2022/10/15 02:23:25;;;;;;;14.23;6.05;;;;;;;;;;5096725;28;20039;-57
2022/10/15 02:25:51;;;;;;;15.35;6.10;;;;;;;;;;5094879;28;20019;-57
2022/10/15 02:28:17;;;;;;;10.80;5.40;;;;;;;;;;5099384;28;20030;-57
2022/10/15 02:30:42;;;;;;;12.80;6.70;;;;;;;;;;5089054;28;20376;-57
2022/10/15 02:33:08;;;;;;;15.35;5.53;;;;;;;;;;5087287;28;20073;-57
2022/10/15 02:35:33;;;;;;;11.95;5.70;;;;;;;;;;5085810;28;20331;-57
2022/10/15 02:37:59;;;;;;;13.18;6.93;;;;;;;;;;5091427;28;20039;-57
2022/10/15 02:40:26;;;;;;;13.40;5.63;;;;;;;;;;5099445;28;20023;-57
2022/10/15 02:42:51;;;;;;;14.00;6.15;;;;;;;;;;5088379;28;20020;-58
2022/10/15 02:45:16;;;;;;;12.15;5.30;;;;;;;;;;5100278;28;20023;-57
2022/10/15 02:47:42;;;;;;;14.20;5.78;;;;;;;;;;5085344;28;20050;-58
2022/10/15 02:50:07;;;;;;;14.85;6.05;;;;;;;;;;5090726;28;20032;-57
2022/10/15 02:52:32;;;;;;;14.20;5.85;;;;;;;;;;5090975;28;20020;-58
2022/10/15 02:54:58;;;;;;;12.32;5.80;;;;;;;;;;5100209;28;20069;-58
2022/10/15 02:57:23;;;;;;;13.40;6.40;;;;;;;;;;5098637;28;20008;-57
2022/10/15 02:59:48;;;;;;;13.23;6.70;;;;;;;;;;5091423;28;20455;-57
2022/10/15 03:02:13;;;;;;;21.95;7.00;;;;;;;;;;5104843;28;20385;-56
2022/10/15 03:04:38;;;;;;;15.15;6.90;;;;;;;;;;5090631;28;20032;-57
2022/10/15 03:07:04;;;;;;;14.13;6.57;;;;;;;;;;5090908;28;20020;-57
2022/10/15 03:09:29;;;;;;;16.70;7.60;;;;;;;;;;5092460;28;20020;-57
2022/10/15 03:11:54;;;;;;;17.05;7.30;;;;;;;;;;5089244;28;20016;-57
2022/10/15 03:14:19;;;;;;;17.25;6.75;;;;;;;;;;5094288;28;20122;-57
2022/10/15 03:16:45;;;;;;;16.50;7.07;;;;;;;;;;5098538;28;20543;-57
2022/10/15 03:19:10;;;;;;;16.20;7.05;;;;;;;;;;5090866;28;20024;-57
2022/10/15 03:21:35;;;;;;;13.13;6.32;;;;;;;;;;5096366;28;20381;-57
2022/10/15 03:24:01;;;;;;;17.33;7.13;;;;;;;;;;5091198;28;20020;-58
2022/10/15 03:26:26;;;;;;;21.17;7.13;;;;;;;;;;5087912;28;20359;-57
2022/10/15 03:28:51;;;;;;;20.17;8.20;;;;;;;;;;5097473;28;20362;-57
2022/10/15 03:31:16;;;;;;;28.45;8.60;;;;;;;;;;5091192;28;20025;-58
2022/10/15 03:33:42;;;;;;;22.63;7.65;;;;;;;;;;5091104;28;20625;-58
2022/10/15 03:36:07;;;;;;;25.92;8.20;;;;;;;;;;5092389;28;20043;-58
2022/10/15 03:38:32;;;;;;;22.60;9.27;;;;;;;;;;5082727;28;20233;-58
2022/10/15 03:40:58;;;;;;;27.75;9.63;;;;;;;;;;5087731;28;20020;-58
2022/10/15 03:43:24;;;;;;;27.88;10.15;;;;;;;;;;5092666;28;20016;-57
2022/10/15 03:45:49;;;;;;;19.10;8.55;;;;;;;;;;5092548;28;20024;-58
2022/10/15 03:48:14;;;;;;;23.00;9.95;;;;;;;;;;5091456;28;20042;-56
2022/10/15 03:50:39;;;;;;;25.33;10.02;;;;;;;;;;5095085;28;20030;-58
2022/10/15 03:53:05;;;;;;;19.95;9.38;;;;;;;;;;5095713;28;20111;-57
2022/10/15 03:55:30;;;;;;;19.60;9.85;;;;;;;;;;5089078;28;20088;-58
2022/10/15 03:57:55;;;;;;;20.23;8.85;;;;;;;;;;5092323;28;20126;-57
2022/10/15 04:00:21;;;;;;;22.17;8.82;;;;;;;;;;5090779;28;20019;-58
2022/10/15 04:02:46;;;;;;;17.00;8.52;;;;;;;;;;5094726;28;20122;-58
2022/10/15 04:05:11;;;;;;;19.17;8.80;;;;;;;;;;5083235;28;20447;-58
2022/10/15 04:07:36;;;;;;;21.58;9.10;;;;;;;;;;5092562;28;20019;-57
2022/10/15 04:10:02;;;;;;;22.02;9.32;;;;;;;;;;5094971;28;20028;-57
2022/10/15 04:12:27;;;;;;;18.63;9.43;;;;;;;;;;5095554;28;20022;-58
2022/10/15 04:14:52;;;;;;;17.77;8.75;;;;;;;;;;5087000;28;20028;-58
2022/10/15 04:17:18;;;;;;;20.17;9.32;;;;;;;;;;5107034;27;20023;-58
2022/10/15 04:19:43;;;;;;;19.33;9.90;;;;;;;;;;5085086;28;20095;-58
2022/10/15 04:22:08;;;;;;;17.88;8.82;;;;;;;;;;5087161;28;20063;-58
2022/10/15 04:24:33;;;;;;;18.80;8.55;;;;;;;;;;5084894;28;20052;-58
2022/10/15 04:26:58;;;;;;;16.23;8.27;;;;;;;;;;5089172;28;20365;-58
2022/10/15 04:29:24;;;;;;;13.88;7.82;;;;;;;;;;5091588;28;20046;-58
2022/10/15 04:31:49;;;;;;;13.68;7.82;;;;;;;;;;5072854;28;20119;-58
2022/10/15 04:34:14;;;;;;;15.68;8.10;;;;;;;;;;5080317;28;20031;-58
2022/10/15 04:36:39;;;;;;;14.70;8.38;;;;;;;;;;5087099;28;21748;-58
2022/10/15 04:39:05;;;;;;;15.68;8.80;;;;;;;;;;5084968;28;20548;-58
2022/10/15 04:41:30;;;;;;;15.95;8.23;;;;;;;;;;5087062;28;20024;-56
2022/10/15 04:43:55;;;;;;;12.90;7.75;;;;;;;;;;5093106;28;20335;-58
2022/10/15 04:46:21;;;;;;;14.52;7.82;;;;;;;;;;5085286;28;20393;-58
2022/10/15 04:48:46;;;;;;;13.93;7.53;;;;;;;;;;5085253;28;20039;-58
2022/10/15 04:51:12;;;;;;;11.25;6.75;;;;;;;;;;5098145;28;20430;-58
2022/10/15 04:53:38;;;;;;;11.98;7.15;;;;;;;;;;5086179;28;20520;-58
2022/10/15 04:56:04;;;;;;;12.25;6.40;;;;;;;;;;5083338;28;20028;-57
2022/10/15 04:58:30;;;;;;;11.23;5.75;;;;;;;;;;5088004;28;20569;-57
2022/10/15 05:00:58;;;;;;;10.65;5.93;;;;;;;;;;5082356;28;20081;-57
2022/10/15 05:03:23;;;;;;;11.75;6.40;;;;;;;;;;5095588;28;20035;-57
2022/10/15 05:05:48;;;;;;;9.27;5.35;;;;;;;;;;5086843;28;20040;-57
2022/10/15 05:08:13;;;;;;;11.32;6.20;;;;;;;;;;5091756;28;20046;-57
2022/10/15 05:10:38;;;;;;;12.35;6.63;;;;;;;;;;5087736;28;20020;-57
2022/10/15 05:13:04;;;;;;;11.73;6.95;;;;;;;;;;5085477;28;20016;-57
2022/10/15 05:15:29;;;;;;;13.80;7.93;;;;;;;;;;5088335;28;20028;-58
2022/10/15 05:17:55;;;;;;;14.20;7.25;;;;;;;;;;5087146;28;20417;-57
2022/10/15 05:20:20;;;;;;;11.75;6.88;;;;;;;;;;5095170;28;20016;-57
2022/10/15 05:22:45;;;;;;;11.98;7.00;;;;;;;;;;5091773;28;20057;-58
2022/10/15 05:25:10;;;;;;;14.38;7.13;;;;;;;;;;5094671;28;20473;-58
2022/10/15 05:27:35;;;;;;;12.73;7.18;;;;;;;;;;5089611;28;20024;-58
2022/10/15 05:30:01;;;;;;;14.38;7.60;;;;;;;;;;5093343;28;20020;-58
2022/10/15 05:32:26;;;;;;;14.07;7.28;;;;;;;;;;5088005;28;20028;-58
2022/10/15 05:34:51;;;;;;;18.23;6.97;;;;;;;;;;5090996;28;20119;-58
2022/10/15 05:37:16;;;;;;;13.73;6.90;;;;;;;;;;5094881;28;20484;-58
2022/10/15 05:39:42;;;;;;;12.15;6.53;;;;;;;;;;5087338;28;20946;-58
2022/10/15 05:42:08;;;;;;;12.68;7.10;;;;;;;;;;5084672;28;20042;-58
2022/10/15 05:44:33;;;;;;;14.27;6.90;;;;;;;;;;5092450;28;20080;-58
2022/10/15 05:47:15;;;;;;;11.00;7.35;;;;;;;;;;5095746;28;20028;-58
2022/10/15 05:49:40;;;;;;;11.80;7.13;;;;;;;;;;5083269;28;20483;-58
2022/10/15 05:52:06;;;;;;;9.90;6.40;;;;;;;;;;5084745;28;20031;-58
2022/10/15 05:54:31;;;;;;;9.93;6.38;;;;;;;;;;5078657;28;20515;-57
2022/10/15 05:56:56;;;;;;;11.65;6.75;;;;;;;;;;5089000;28;20012;-58
2022/10/15 05:59:21;;;;;;;10.15;6.40;;;;;;;;;;5105986;28;20035;-58
2022/10/15 06:01:47;;;;;;;10.05;5.97;;;;;;;;;;5090029;28;20111;-58
2022/10/15 06:04:12;;;;;;;9.82;6.72;;;;;;;;;;5087384;28;20379;-58
2022/10/15 06:06:37;;;;;;;10.88;6.75;;;;;;;;;;5086378;28;20030;-58
2022/10/15 06:09:02;;;;;;;16.63;5.85;;;;;;;;;;5088669;28;20024;-57
2022/10/15 06:11:27;;;;;;;9.10;6.00;;;;;;;;;;5083039;28;20020;-58
2022/10/15 06:13:53;;;;;;;10.45;6.10;;;;;;;;;;5090383;28;20280;-58
2022/10/15 06:16:18;;;;;;;16.02;5.70;;;;;;;;;;5091633;28;20056;-57
2022/10/15 06:18:43;;;;;;;9.25;5.60;;;;;;;;;;5078486;28;20055;-56
2022/10/15 06:21:09;;;;;;;11.77;5.95;;;;;;;;;;5089512;28;20028;-56
2022/10/15 06:23:34;;;;;;;8.88;5.82;;;;;;;;;;5085863;28;20066;-56
2022/10/15 06:26:03;;;;;;;8.35;5.50;;;;;;;;;;5081474;28;20388;-56
2022/10/15 06:28:28;;;;;;;10.38;5.72;;;;;;;;;;5082017;28;20059;-56
2022/10/15 06:30:56;;;;;;;8.30;5.60;;;;;;;;;;5076758;28;20044;-56
2022/10/15 06:33:21;;;;;;;7.55;4.93;;;;;;;;;;5086477;28;20020;-56
2022/10/15 06:35:46;;;;;;;8.05;5.50;;;;;;;;;;5079082;28;20047;-56
2022/10/15 06:38:12;;;;;;;7.32;4.57;;;;;;;;;;5088265;28;20442;-56
2022/10/15 06:40:38;;;;;;;6.85;4.60;;;;;;;;;;5086534;28;20027;-56
2022/10/15 06:43:07;;;;;;;6.68;4.65;;;;;;;;;;5066749;28;20042;-56
2022/10/15 06:45:32;;;;;;;10.90;4.40;;;;;;;;;;5087761;28;20591;-57
2022/10/15 06:47:57;;;;;;;6.80;4.03;;;;;;;;;;5088293;28;20253;-55
2022/10/15 06:50:23;;;;;;;7.85;4.28;;;;;;;;;;5088444;28;20506;-56
2022/10/15 06:52:48;;;;;;;6.43;3.60;;;;;;;;;;5080354;28;20027;-56
2022/10/15 06:55:13;;;;;;;9.48;3.53;;;;;;;;;;5070080;28;20024;-56
2022/10/15 06:57:38;;;;;;;6.78;3.53;;;;;;;;;;5084691;28;20576;-56
2022/10/15 07:00:04;;;;;;;6.95;3.70;;;;;;;;;;5090946;28;20020;-56
2022/10/15 07:02:29;;;;;;;5.20;3.50;;;;;;;;;;5089695;28;20020;-56
2022/10/15 07:04:54;;;;;;;6.82;3.10;;;;;;;;;;5084630;28;20383;-56
2022/10/15 07:07:20;;;;;;;10.07;3.20;;;;;;;;;;5093252;28;20110;-57
2022/10/15 07:09:46;;;;;;;5.03;3.08;;;;;;;;;;5090947;28;20106;-56
2022/10/15 07:12:11;;;;;;;5.05;3.03;;;;;;;;;;5089578;28;20064;-56
2022/10/15 07:14:36;;;;;;;6.90;3.40;;;;;;;;;;5091653;28;20063;-57
2022/10/15 07:17:01;;;;;;;6.38;2.97;;;;;;;;;;5088417;28;20052;-56
2022/10/15 07:19:27;;;;;;;5.00;3.00;;;;;;;;;;5088238;28;20068;-56
2022/10/15 07:21:52;;;;;;;4.40;2.80;;;;;;;;;;5091536;28;20035;-56
2022/10/15 07:24:17;;;;;;;4.22;2.63;;;;;;;;;;5091529;28;20308;-56
2022/10/15 07:26:43;;;;;;;6.22;2.80;;;;;;;;;;5086458;28;20031;-56
2022/10/15 07:29:08;;;;;;;5.03;2.53;;;;;;;;;;5094261;28;20062;-57
2022/10/15 07:31:33;;;;;;;3.60;2.50;;;;;;;;;;5085325;28;20024;-57
2022/10/15 07:33:58;;;;;;;3.45;2.30;;;;;;;;;;5070856;28;20036;-56
2022/10/15 07:36:24;;;;;;;3.63;2.47;;;;;;;;;;5078522;28;20454;-56
2022/10/15 07:38:49;;;;;;;4.30;2.15;;;;;;;;;;5080829;28;20032;-57
2022/10/15 07:41:14;;;;;;;3.22;2.30;;;;;;;;;;5090234;28;20019;-54
2022/10/15 07:43:40;;;;;;;4.47;2.00;;;;;;;;;;5092737;28;20039;-56
2022/10/15 07:46:05;;;;;;;5.45;2.45;;;;;;;;;;5088653;28;20024;-56
2022/10/15 07:48:30;;;;;;;3.13;2.22;;;;;;;;;;5106977;27;20075;-56
2022/10/15 07:50:59;;;;;;;4.78;2.40;;;;;;;;;;5086240;28;20420;-56
2022/10/15 07:53:24;;;;;;;8.40;2.50;;;;;;;;;;5082980;28;20036;-56
2022/10/15 07:55:50;;;;;;;7.78;2.55;;;;;;;;;;5090653;28;20176;-56
2022/10/15 07:58:15;;;;;;;5.85;2.83;;;;;;;;;;5093849;28;20019;-56
2022/10/15 08:00:40;;;;;;;3.65;2.65;;;;;;;;;;5090264;28;20024;-56
2022/10/15 08:03:05;;;;;;;4.97;2.67;;;;;;;;;;5089557;28;20052;-57
2022/10/15 08:05:31;;;;;;;8.60;2.67;;;;;;;;;;5093643;28;20084;-57
2022/10/15 08:07:56;;;;;;;6.18;2.47;;;;;;;;;;5092061;28;20028;-57
2022/10/15 08:10:22;;;;;;;8.18;2.40;;;;;;;;;;5089694;28;20031;-57
2022/10/15 08:12:47;;;;;;;3.33;2.10;;;;;;;;;;5088068;28;20023;-56
2022/10/15 08:15:15;;;;;;;3.38;2.10;;;;;;;;;;5088904;28;20038;-57
2022/10/15 08:17:40;;;;;;;3.38;1.98;;;;;;;;;;5089401;28;20120;-56
2022/10/15 08:20:06;;;;;;;3.20;1.98;;;;;;;;;;5087405;28;20063;-57
2022/10/15 08:22:32;;;;;;;4.10;2.03;;;;;;;;;;5087044;28;20011;-57
2022/10/15 08:24:57;;;;;;;2.38;1.60;;;;;;;;;;5082890;28;20024;-57
2022/10/15 08:27:23;;;;;;;3.05;1.40;;;;;;;;;;5086949;28;20035;-57
2022/10/15 08:29:48;;;;;;;2.38;1.60;;;;;;;;;;5085572;28;20119;-56
2022/10/15 08:32:13;;;;;;;3.13;1.60;;;;;;;;;;5087736;28;20413;-57
2022/10/15 08:34:38;;;;;;;1.83;1.50;;;;;;;;;;5097147;28;20027;-56
2022/10/15 08:37:04;;;;;;;1.40;1.30;;;;;;;;;;5091332;28;20371;-56
2022/10/15 08:39:29;;;;;;;1.27;1.17;;;;;;;;;;5089348;28;20023;-56
2022/10/15 08:41:55;;;;;;;1.23;1.10;;;;;;;;;;5097548;28;20047;-56
2022/10/15 08:44:32;;;;;;;2.38;1.40;;;;;;;;;;5080674;27;20034;-57
2022/10/15 08:47:01;;;;;;;1.20;1.10;;;;;;;;;;5088832;28;20020;-56
2022/10/15 08:49:30;;;;;;;1.43;1.30;;;;;;;;;;5102342;27;20020;-56
2022/10/15 08:51:57;;;;;;;1.15;1.05;;;;;;;;;;5071596;28;20020;-56
2022/10/15 08:54:22;;;;;;;1.30;1.20;;;;;;;;;;5073871;28;20036;-56
2022/10/15 08:56:49;;;;;;;2.95;1.10;;;;;;;;;;5085045;28;20130;-58
2022/10/15 08:59:21;;;;;;;1.90;1.20;;;;;;;;;;5073345;28;20032;-56
2022/10/15 09:01:50;;;;;;;1.38;1.10;;;;;;;;;;5091254;28;20020;-57
2022/10/15 09:04:25;;;;;;;2.78;1.20;;;;;;;;;;5077899;28;20067;-57
2022/10/15 09:06:52;;;;;;;1.30;1.20;;;;;;;;;;5075226;28;20036;-57
2022/10/15 09:09:17;;;;;;;1.05;1.00;;;;;;;;;;5090816;28;20072;-56
2022/10/15 09:12:02;;;;;;;1.90;1.10;;;;;;;;;;5071526;28;20382;-56
2022/10/15 09:14:28;;;;;;;2.78;1.10;;;;;;;;;;5073741;28;20085;-56
2022/10/15 09:16:53;;;;;;;2.30;1.20;;;;;;;;;;5079034;28;20085;-57
2022/10/15 09:19:20;;;;;;;3.90;1.50;;;;;;;;;;5086501;28;20024;-57
2022/10/15 09:21:48;;;;;;;2.35;1.33;;;;;;;;;;5081224;28;20102;-56
2022/10/15 09:24:24;;;;;;;2.40;1.20;;;;;;;;;;5083892;28;20382;-57
2022/10/15 09:27:01;;;;;;;1.70;1.30;;;;;;;;;;5087537;28;20612;-56
2022/10/15 09:29:39;;;;;;;1.35;1.25;;;;;;;;;;5090700;28;20084;-55
2022/10/15 09:32:04;;;;;;;2.60;1.20;;;;;;;;;;5083604;28;20045;-61
2022/10/15 09:34:29;;;;;;;1.00;1.00;;;;;;;;;;5086127;28;20119;-57
2022/10/15 09:36:59;;;;;;;2.40;1.45;;;;;;;;;;5089563;28;20108;-55
2022/10/15 09:39:37;;;;;;;1.92;1.23;;;;;;;;;;5086348;28;20027;-56
2022/10/15 09:42:06;;;;;;;3.30;1.30;;;;;;;;;;5082265;28;20374;-56
2022/10/15 09:44:33;;;;;;;1.00;1.00;;;;;;;;;;5094274;28;20012;-56
2022/10/15 09:46:58;;;;;;;1.80;1.05;;;;;;;;;;5082070;28;20023;-56
2022/10/15 09:49:24;;;;;;;1.85;1.13;;;;;;;;;;5085174;28;20188;-56
2022/10/15 09:51:49;;;;;;;1.13;0.95;;;;;;;;;;5082673;28;20474;-55
2022/10/15 09:54:41;;;;;;;1.55;1.05;;;;;;;;;;5088394;28;20066;-56
2022/10/15 09:57:07;;;;;;;2.45;1.08;;;;;;;;;;5065247;28;20036;-56
2022/10/15 09:59:32;;;;;;;3.33;0.82;;;;;;;;;;5073415;28;20482;-57
2022/10/15 10:02:08;;;;;;;0.95;0.95;;;;;;;;;;5074767;28;20421;-57
2022/10/15 10:04:35;;;;;;;4.50;1.13;;;;;;;;;;5070487;28;20492;-58
2022/10/15 10:07:01;;;;;;;2.58;1.23;;;;;;;;;;5079127;28;20130;-57
2022/10/15 10:09:36;;;;;;;2.72;1.15;;;;;;;;;;5075863;28;20144;-57
2022/10/15 10:12:03;;;;;;;0.93;0.93;;;;;;;;;;5074043;28;20430;-56
2022/10/15 10:14:29;;;;;;;0.88;0.88;;;;;;;;;;5074810;28;20023;-58
2022/10/15 10:17:05;;;;;;;1.33;0.93;;;;;;;;;;5078937;28;20031;-55
2022/10/15 10:19:30;;;;;;;1.73;0.88;;;;;;;;;;5070525;28;20085;-58
2022/10/15 10:22:06;;;;;;;2.28;1.10;;;;;;;;;;5085494;28;20032;-55
2022/10/15 10:24:33;;;;;;;1.20;1.08;;;;;;;;;;5076476;28;21301;-56
2022/10/15 10:26:58;;;;;;;1.65;1.20;;;;;;;;;;5078967;28;20077;-56
2022/10/15 10:29:23;;;;;;;2.70;1.10;;;;;;;;;;5081997;28;20542;-56
2022/10/15 10:31:50;;;;;;;0.93;0.88;;;;;;;;;;5073431;28;20074;-58
2022/10/15 10:34:21;;;;;;;1.08;1.00;;;;;;;;;;5081956;28;20311;-56
2022/10/15 10:36:49;;;;;;;1.20;1.10;;;;;;;;;;5081579;28;20493;-58
2022/10/15 10:39:24;;;;;;;1.33;1.20;;;;;;;;;;5078642;28;20199;-57
2022/10/15 10:41:50;;;;;;;2.20;0.98;;;;;;;;;;5079208;28;20379;-57
2022/10/15 10:44:34;;;;;;;1.65;1.00;;;;;;;;;;5079946;28;20026;-57
2022/10/15 10:47:00;;;;;;;1.45;1.00;;;;;;;;;;5075246;28;20027;-57
2022/10/15 10:49:30;;;;;;;5.53;1.23;;;;;;;;;;5077455;28;20190;-58
2022/10/15 10:51:55;;;;;;;2.58;1.02;;;;;;;;;;5074201;28;20524;-58
2022/10/15 10:54:20;;;;;;;1.02;1.00;;;;;;;;;;5081330;28;20032;-57
2022/10/15 10:56:47;;;;;;;3.67;1.00;;;;;;;;;;5079034;28;20050;-57
2022/10/15 10:59:17;;;;;;;1.10;0.80;;;;;;;;;;5080335;28;20016;-57
2022/10/15 11:01:42;;;;;;;;;;;;;;;;;;5083563;28;20443;-58
2022/10/15 11:04:16;;;;;;;4.22;1.15;;;;;;;;;;5080274;28;20003;-57
2022/10/15 11:06:42;;;;;;;2.25;1.02;;;;;;;;;;5088050;28;20028;-57
2022/10/15 11:09:11;;;;;;;1.15;0.80;;;;;;;;;;5091367;28;20053;-56
2022/10/15 11:11:50;;;;;;;1.70;0.90;;;;;;;;;;5079318;28;20017;-58
2022/10/15 11:14:30;;;;;;;1.80;0.70;;;;;;;;;;5069000;28;20355;-58
2022/10/15 11:16:59;;;;;;;4.15;1.10;;;;;;;;;;5071715;28;20301;-57
2022/10/15 11:19:27;;;;;;;1.40;1.17;;;;;;;;;;5075725;28;20024;-56
2022/10/15 11:21:58;;;;;;;3.03;0.90;;;;;;;;;;5074965;28;20072;-58
2022/10/15 11:24:34;;;;;;;1.00;0.90;;;;;;;;;;5074202;28;20047;-58
2022/10/15 11:27:23;;;;;;;1.13;0.85;;;;;;;;;;5078358;28;20084;-57
2022/10/15 11:29:54;;;;;;;2.67;1.10;;;;;;;;;;5067443;28;20448;-58
2022/10/15 11:32:22;;;;;;;1.65;0.70;;;;;;;;;;5080615;28;20043;-57
2022/10/15 11:35:06;;;;;;;3.70;1.00;;;;;;;;;;5076158;28;20047;-58
2022/10/15 11:37:48;;;;;;;4.65;1.00;;;;;;;;;;5082198;28;20415;-58
2022/10/15 11:40:18;;;;;;;1.85;0.88;;;;;;;;;;5075290;28;20020;-57
2022/10/15 11:42:43;;;;;;;;;;;;;;;;;;5067138;28;20024;-57
2022/10/15 11:45:11;;;;;;;1.70;0.80;;;;;;;;;;5080714;28;19969;-57
2022/10/15 11:47:39;;;;;;;1.08;0.60;;;;;;;;;;5072849;28;20078;-57
2022/10/15 11:50:14;;;;;;;0.88;0.60;;;;;;;;;;5077579;28;20029;-57
2022/10/15 11:52:49;;;;;;;1.38;0.80;;;;;;;;;;5085661;28;20434;-58
2022/10/15 11:55:26;;;;;;;2.15;0.75;;;;;;;;;;5086056;28;20035;-57
2022/10/15 11:57:52;;;;;;;3.58;0.68;;;;;;;;;;5083568;28;20023;-58
2022/10/15 12:00:24;;;;;;;1.45;0.63;;;;;;;;;;5080751;28;20025;-57
2022/10/15 12:02:49;;;;;;;1.00;0.52;;;;;;;;;;5084861;28;20120;-57
2022/10/15 12:05:44;;;;;;;2.42;1.02;;;;;;;;;;5084762;28;20541;-57
2022/10/15 12:08:09;;;;;;;1.75;1.08;;;;;;;;;;5066095;28;20391;-57
2022/10/15 12:10:53;;;;;;;2.08;1.85;;;;;;;;;;5075224;28;20076;-57
2022/10/15 12:13:18;;;;;;;0.75;0.70;;;;;;;;;;5077167;28;20055;-56
2022/10/15 12:15:44;;;;;;;1.38;0.80;;;;;;;;;;5074137;28;20482;-56
2022/10/15 12:18:12;;;;;;;0.65;0.65;;;;;;;;;;5073625;28;20071;-57
2022/10/15 12:20:39;;;;;;;1.23;0.82;;;;;;;;;;5084035;28;20286;-57
2022/10/15 12:23:04;;;;;;;1.95;0.90;;;;;;;;;;5073849;28;20366;-56
2022/10/15 12:25:30;;;;;;;1.38;0.80;;;;;;;;;;5079357;28;20027;-55
2022/10/15 12:28:02;;;;;;;3.70;1.13;;;;;;;;;;5090182;28;20016;-57
2022/10/15 12:30:33;;;;;;;1.88;0.80;;;;;;;;;;5091473;28;20378;-58
2022/10/15 12:32:58;;;;;;;1.05;0.90;;;;;;;;;;5080001;28;20060;-56
2022/10/15 12:35:27;;;;;;;1.67;0.70;;;;;;;;;;5085115;28;20031;-56
2022/10/15 12:37:52;;;;;;;2.72;0.98;;;;;;;;;;5076551;28;20480;-56
2022/10/15 12:40:20;;;;;;;2.55;1.00;;;;;;;;;;5095008;28;20112;-56
2022/10/15 12:42:59;;;;;;;1.85;0.80;;;;;;;;;;5089778;28;20030;-56
2022/10/15 12:45:34;;;;;;;2.80;0.90;;;;;;;;;;5081457;28;20016;-55
2022/10/15 12:48:02;;;;;;;4.18;0.95;;;;;;;;;;5088140;28;20028;-56
2022/10/15 12:50:29;;;;;;;2.85;1.10;;;;;;;;;;5076980;28;20024;-57
2022/10/15 12:52:58;;;;;;;1.35;0.90;;;;;;;;;;5075268;28;20462;-55
2022/10/15 12:55:23;;;;;;;2.35;0.98;;;;;;;;;;5078574;28;20134;-55
2022/10/15 12:57:55;;;;;;;1.30;0.80;;;;;;;;;;5084782;28;20397;-56
2022/10/15 13:00:21;;;;;;;1.08;0.70;;;;;;;;;;5086162;28;20016;-55
2022/10/15 13:02:46;;;;;;;2.03;1.00;;;;;;;;;;5091368;28;20548;-55
2022/10/15 13:05:24;;;;;;;2.25;0.80;;;;;;;;;;5076265;28;20486;-56
2022/10/15 13:07:50;;;;;;;2.75;1.00;;;;;;;;;;5075018;28;20028;-57
2022/10/15 13:10:17;;;;;;;3.33;0.95;;;;;;;;;;5082019;28;20016;-56
2022/10/15 13:12:42;;;;;;;2.92;1.05;;;;;;;;;;5078496;28;20028;-56
2022/10/15 13:15:10;;;;;;;1.50;1.10;;;;;;;;;;5074747;28;20077;-57
2022/10/15 13:17:35;;;;;;;1.52;1.42;;;;;;;;;;5077222;28;20462;-56
2022/10/15 13:20:03;;;;;;;2.20;0.85;;;;;;;;;;5076972;28;20085;-56
2022/10/15 13:22:29;;;;;;;0.90;0.82;;;;;;;;;;5083447;28;20055;-56
2022/10/15 13:24:54;;;;;;;1.52;0.95;;;;;;;;;;5076996;28;20064;-56
2022/10/15 13:27:30;;;;;;;2.58;0.88;;;;;;;;;;5084927;28;20584;-57
2022/10/15 13:30:06;;;;;;;1.08;0.80;;;;;;;;;;5076917;28;20035;-55
2022/10/15 13:32:32;;;;;;;1.00;0.80;;;;;;;;;;5078415;28;20024;-56
2022/10/15 13:34:57;;;;;;;1.63;0.70;;;;;;;;;;5076160;28;20031;-57
2022/10/15 13:37:34;;;;;;;1.90;1.00;;;;;;;;;;5067149;28;20028;-57
2022/10/15 13:40:00;;;;;;;2.58;0.85;;;;;;;;;;5080494;28;20023;-57
2022/10/15 13:42:25;;;;;;;1.35;0.70;;;;;;;;;;5075667;28;20043;-57
2022/10/15 13:44:56;;;;;;;2.90;1.00;;;;;;;;;;5077445;28;20031;-57
2022/10/15 13:47:26;;;;;;;1.23;0.93;;;;;;;;;;5087876;28;20015;-55
2022/10/15 13:50:04;;;;;;;2.57;1.30;;;;;;;;;;5088044;28;20470;-57
2022/10/15 13:52:29;;;;;;;1.90;0.75;;;;;;;;;;5080195;28;20616;-56
2022/10/15 13:54:54;;;;;;;1.55;1.00;;;;;;;;;;5063118;28;20523;-57
2022/10/15 13:57:20;;;;;;;1.35;0.90;;;;;;;;;;5077207;28;20024;-57
2022/10/15 13:59:45;;;;;;;1.25;0.88;;;;;;;;;;5074660;28;20487;-56
2022/10/15 14:02:10;;;;;;;1.40;1.00;;;;;;;;;;5080724;28;20030;-57
2022/10/15 14:04:36;;;;;;;1.92;1.00;;;;;;;;;;5089260;28;20486;-56
2022/10/15 14:07:19;;;;;;;3.30;1.10;;;;;;;;;;5090616;28;20045;-57
2022/10/15 14:09:45;;;;;;;1.00;0.90;;;;;;;;;;5088040;28;20048;-57
2022/10/15 14:12:10;;;;;;;1.60;0.90;;;;;;;;;;5076526;28;20471;-57
2022/10/15 14:14:40;;;;;;;1.70;0.88;;;;;;;;;;5088778;28;20063;-57
2022/10/15 14:17:09;;;;;;;0.63;0.60;;;;;;;;;;5095666;28;20031;-56
2022/10/15 14:19:35;;;;;;;1.52;0.95;;;;;;;;;;5086947;27;20036;-55
2022/10/15 14:22:00;;;;;;;2.35;0.77;;;;;;;;;;5090835;28;20027;-56
2022/10/15 14:24:32;;;;;;;0.80;0.80;;;;;;;;;;5078313;28;20111;-56
2022/10/15 14:27:01;;;;;;;2.40;1.10;;;;;;;;;;5089695;28;20024;-58
2022/10/15 14:29:34;;;;;;;1.80;0.87;;;;;;;;;;5091297;28;20024;-56
2022/10/15 14:31:59;;;;;;;3.42;1.10;;;;;;;;;;5091420;28;20024;-56
2022/10/15 14:34:25;;;;;;;0.75;0.75;;;;;;;;;;5096106;28;20069;-57
2022/10/15 14:36:50;;;;;;;1.05;0.90;;;;;;;;;;5096103;28;20436;-57
2022/10/15 14:39:19;;;;;;;3.85;0.80;;;;;;;;;;5094658;28;20019;-57
2022/10/15 14:42:02;;;;;;;1.67;0.90;;;;;;;;;;5090049;28;20048;-58